createdAt,value
2023-02-10T00:00:14.682Z,28.17
2023-02-10T00:02:41.181Z,28.73
2023-02-10T00:05:07.927Z,32.15
2023-02-10T00:07:34.336Z,30.23
2023-02-10T00:10:00.733Z,31.58
2023-02-10T00:12:27.220Z,33.80
2023-02-10T00:14:53.630Z,33.17
2023-02-10T00:17:20.254Z,25.98
2023-02-10T00:19:46.784Z,31.10
2023-02-10T00:22:13.218Z,26.45
2023-02-10T00:24:39.687Z,33.00
2023-02-10T00:27:06.142Z,30.27
2023-02-10T00:29:33.919Z,33.70
2023-02-10T00:32:01.443Z,34.53
2023-02-10T00:34:28.889Z,30.23
2023-02-10T00:36:55.357Z,26.88
2023-02-10T00:39:21.775Z,27.40
2023-02-10T00:41:48.229Z,26.88
2023-02-10T00:44:14.725Z,25.67
2023-02-10T00:46:41.369Z,21.98
2023-02-10T00:49:07.959Z,27.20
2023-02-10T00:51:35.442Z,28.55
2023-02-10T00:54:02.150Z,32.95
2023-02-10T00:56:29.000Z,30.60
2023-02-10T00:58:57.372Z,26.40
2023-02-10T01:01:23.842Z,29.70
2023-02-10T01:03:50.255Z,34.33
2023-02-10T01:06:16.819Z,35.05
2023-02-10T01:08:43.516Z,28.15
2023-02-10T01:11:12.477Z,34.13
2023-02-10T01:13:40.292Z,28.55
2023-02-10T01:16:12.585Z,30.23
2023-02-10T01:18:40.081Z,30.08
2023-02-10T01:21:08.794Z,30.58
2023-02-10T01:23:35.389Z,25.67
2023-02-10T01:26:01.887Z,31.40
2023-02-10T01:28:28.465Z,30.63
2023-02-10T01:30:54.936Z,28.80
2023-02-10T01:33:21.385Z,25.45
2023-02-10T01:35:48.091Z,24.73
2023-02-10T01:38:14.806Z,34.20
2023-02-10T01:40:41.277Z,30.00
2023-02-10T01:43:15.352Z,23.95
2023-02-10T01:45:42.360Z,25.02
2023-02-10T01:48:10.788Z,26.25
2023-02-10T01:50:51.652Z,30.55
2023-02-10T01:53:19.124Z,29.23
2023-02-10T01:55:49.052Z,29.92
2023-02-10T01:58:19.507Z,26.40
2023-02-10T02:00:45.998Z,24.17
2023-02-10T02:03:13.597Z,26.38
2023-02-10T02:05:41.922Z,29.63
2023-02-10T02:08:13.929Z,32.30
2023-02-10T02:10:52.596Z,27.67
2023-02-10T02:13:48.393Z,30.65
2023-02-10T02:16:42.969Z,31.35
2023-02-10T02:19:24.600Z,26.00
2023-02-10T02:22:12.974Z,37.35
2023-02-10T02:25:21.049Z,27.50
2023-02-10T02:28:06.279Z,24.73
2023-02-10T02:31:04.792Z,29.35
2023-02-10T02:33:44.483Z,31.33
2023-02-10T02:36:16.602Z,25.77
2023-02-10T02:38:43.728Z,30.17
2023-02-10T02:41:11.181Z,31.13
2023-02-10T02:43:39.605Z,30.15
2023-02-10T02:46:19.456Z,31.13
2023-02-10T02:48:58.518Z,33.67
2023-02-10T02:51:41.070Z,30.05
2023-02-10T02:54:33.096Z,30.48
2023-02-10T02:59:51.916Z,35.55
2023-02-10T03:02:21.675Z,30.27
2023-02-10T03:04:49.884Z,35.42
2023-02-10T03:07:16.498Z,33.03
2023-02-10T03:09:44.618Z,31.30
2023-02-10T03:12:13.206Z,28.23
2023-02-10T03:14:40.406Z,31.40
2023-02-10T03:17:06.794Z,35.33
2023-02-10T03:19:33.269Z,36.83
2023-02-10T03:21:59.726Z,32.50
2023-02-10T03:24:26.137Z,35.60
2023-02-10T03:26:52.596Z,34.25
2023-02-10T03:29:19.158Z,28.35
2023-02-10T03:31:45.657Z,27.00
2023-02-10T03:34:12.470Z,31.02
2023-02-10T03:36:39.108Z,33.13
2023-02-10T03:39:05.702Z,33.10
2023-02-10T03:41:32.190Z,32.28
2023-02-10T03:43:58.723Z,27.52
2023-02-10T03:46:25.303Z,32.17
2023-02-10T03:48:51.829Z,28.38
2023-02-10T03:51:18.269Z,29.83
2023-02-10T03:53:44.760Z,29.13
2023-02-10T03:56:11.882Z,32.05
2023-02-10T03:58:38.331Z,30.98
2023-02-10T04:01:17.516Z,25.63
2023-02-10T04:03:45.357Z,28.50
2023-02-10T04:06:12.609Z,31.20
2023-02-10T04:08:39.726Z,33.17
2023-02-10T04:11:07.452Z,29.48
2023-02-10T04:13:33.911Z,31.65
2023-02-10T04:16:08.914Z,29.13
2023-02-10T04:18:36.002Z,27.50
2023-02-10T04:21:04.295Z,30.58
2023-02-10T04:23:31.473Z,25.08
2023-02-10T04:25:58.214Z,31.77
2023-02-10T04:28:25.138Z,32.90
2023-02-10T04:30:55.990Z,37.38
2023-02-10T04:33:23.227Z,28.67
2023-02-10T04:35:50.194Z,28.98
2023-02-10T04:38:17.614Z,32.05
2023-02-10T04:40:44.188Z,24.50
2023-02-10T04:43:12.349Z,28.65
2023-02-10T04:45:39.149Z,30.75
2023-02-10T04:48:06.343Z,29.95
2023-02-10T04:50:33.675Z,35.05
2023-02-10T04:53:00.180Z,34.65
2023-02-10T04:55:26.696Z,34.75
2023-02-10T04:57:53.121Z,33.05
2023-02-10T05:00:19.920Z,32.35
2023-02-10T05:02:46.342Z,30.85
2023-02-10T05:05:13.790Z,32.55
2023-02-10T05:07:40.355Z,32.25
2023-02-10T05:10:07.080Z,27.98
2023-02-10T05:12:33.562Z,33.13
2023-02-10T05:15:00.265Z,27.65
2023-02-10T05:17:26.677Z,29.15
2023-02-10T05:19:53.147Z,34.58
2023-02-10T05:22:19.630Z,31.83
2023-02-10T05:24:46.078Z,30.73
2023-02-10T05:27:12.540Z,33.40
2023-02-10T05:29:38.959Z,33.53
2023-02-10T05:32:05.563Z,33.20
2023-02-10T05:34:32.064Z,42.78
2023-02-10T05:36:58.581Z,29.48
2023-02-10T05:39:25.082Z,30.98
2023-02-10T05:41:53.466Z,30.08
2023-02-10T05:44:20.042Z,27.15
2023-02-10T05:46:46.726Z,29.77
2023-02-10T05:49:13.175Z,33.78
2023-02-10T05:51:39.601Z,25.63
2023-02-10T05:54:06.074Z,33.63
2023-02-10T05:56:32.663Z,32.33
2023-02-10T05:58:59.182Z,39.60
2023-02-10T06:01:25.677Z,28.33
2023-02-10T06:03:52.232Z,30.17
2023-02-10T06:06:18.734Z,40.40
2023-02-10T06:08:45.228Z,34.90
2023-02-10T06:11:11.677Z,26.48
2023-02-10T06:13:38.624Z,32.80
2023-02-10T06:16:05.450Z,29.73
2023-02-10T06:18:32.570Z,29.67
2023-02-10T06:20:59.116Z,31.92
2023-02-10T06:23:26.335Z,31.00
2023-02-10T06:25:55.358Z,31.05
2023-02-10T06:28:23.632Z,30.58
2023-02-10T06:30:50.217Z,26.80
2023-02-10T06:33:17.668Z,34.40
2023-02-10T06:35:44.858Z,31.05
2023-02-10T06:38:11.398Z,36.28
2023-02-10T06:40:37.933Z,25.95
2023-02-10T06:43:04.546Z,31.67
2023-02-10T06:45:31.246Z,26.02
2023-02-10T06:47:57.819Z,29.02
2023-02-10T06:50:24.240Z,35.53
2023-02-10T06:52:50.739Z,30.55
2023-02-10T06:55:17.666Z,32.10
2023-02-10T06:57:44.123Z,30.80
2023-02-10T07:00:12.823Z,29.48
2023-02-10T07:02:39.409Z,29.27
2023-02-10T07:05:08.791Z,25.63
2023-02-10T07:07:39.535Z,24.98
2023-02-10T07:10:06.557Z,33.87
2023-02-10T07:12:33.063Z,25.88
2023-02-10T07:14:59.455Z,34.22
2023-02-10T07:17:26.054Z,31.70
2023-02-10T07:19:52.507Z,32.05
2023-02-10T07:22:18.946Z,25.77
2023-02-10T07:24:45.356Z,46.85
2023-02-10T07:27:11.754Z,45.67
2023-02-10T07:29:38.513Z,37.75
2023-02-10T07:32:05.239Z,44.53
2023-02-10T07:34:34.916Z,38.08
2023-02-10T07:37:01.350Z,43.22
2023-02-10T07:39:28.327Z,37.13
2023-02-10T07:41:54.745Z,37.67
2023-02-10T07:44:27.384Z,42.22
2023-02-10T07:46:53.949Z,29.63
2023-02-10T07:49:20.657Z,35.40
2023-02-10T07:51:47.097Z,37.88
2023-02-10T07:54:13.597Z,35.83
2023-02-10T07:56:40.068Z,34.38
2023-02-10T07:59:08.316Z,34.95
2023-02-10T08:01:38.605Z,32.50
2023-02-10T08:04:05.226Z,34.88
2023-02-10T08:06:31.725Z,30.90
2023-02-10T08:08:58.211Z,34.30
2023-02-10T08:11:24.831Z,37.40
2023-02-10T08:13:51.322Z,35.33
2023-02-10T08:16:17.928Z,35.20
2023-02-10T08:18:44.572Z,39.10
2023-02-10T08:21:11.159Z,38.17
2023-02-10T08:23:38.173Z,55.70
2023-02-10T08:26:12.297Z,34.83
2023-02-10T08:28:40.662Z,57.55
2023-02-10T08:31:09.181Z,48.83
2023-02-10T08:33:45.959Z,50.70
2023-02-10T08:36:15.279Z,33.22
2023-02-10T08:38:41.956Z,36.47
2023-02-10T08:41:08.472Z,40.67
2023-02-10T08:43:34.946Z,33.80
2023-02-10T08:46:02.395Z,31.13
2023-02-10T08:48:28.915Z,34.70
2023-02-10T08:50:55.377Z,37.80
2023-02-10T08:53:22.322Z,40.70
2023-02-10T08:56:00.793Z,28.05
2023-02-10T08:58:27.869Z,31.63
2023-02-10T09:00:54.492Z,27.30
2023-02-10T09:03:21.549Z,32.92
2023-02-10T09:05:49.888Z,34.60
2023-02-10T09:08:17.649Z,20.65
2023-02-10T09:10:45.078Z,25.38
2023-02-10T09:13:12.013Z,19.25
2023-02-10T09:15:40.054Z,30.33
2023-02-10T09:18:07.801Z,39.60
2023-02-10T09:20:34.535Z,27.35
2023-02-10T09:23:01.059Z,42.95
2023-02-10T09:25:27.744Z,30.55
2023-02-10T09:27:55.742Z,31.45
2023-02-10T09:30:22.270Z,29.17
2023-02-10T09:32:49.056Z,24.80
2023-02-10T09:35:15.549Z,28.17
2023-02-10T09:37:42.014Z,24.13
2023-02-10T09:40:14.743Z,31.40
2023-02-10T09:42:56.407Z,21.83
2023-02-10T09:45:30.193Z,26.70
2023-02-10T09:48:16.953Z,27.35
2023-02-10T09:50:56.190Z,22.42
2023-02-10T09:53:26.707Z,24.92
2023-02-10T09:55:59.182Z,21.73
2023-02-10T09:58:32.841Z,26.13
2023-02-10T10:01:16.011Z,24.08
2023-02-10T10:03:58.904Z,24.40
2023-02-10T10:06:33.594Z,22.42
2023-02-10T10:09:12.887Z,23.10
2023-02-10T10:11:41.996Z,23.25
2023-02-10T10:14:36.247Z,23.80
2023-02-10T10:17:13.251Z,24.40
2023-02-10T10:19:52.202Z,25.50
2023-02-10T10:22:54.730Z,27.65
2023-02-10T10:25:38.048Z,21.88
2023-02-10T10:28:22.516Z,23.30
2023-02-10T10:30:58.162Z,17.95
2023-02-10T10:33:49.460Z,20.73
2023-02-10T10:36:19.083Z,25.63
2023-02-10T10:38:54.183Z,25.40
2023-02-10T10:41:26.360Z,24.52
2023-02-10T10:43:54.933Z,19.63
2023-02-10T10:46:34.962Z,22.85
2023-02-10T10:49:01.648Z,17.05
2023-02-10T10:51:28.937Z,19.90
2023-02-10T10:53:57.725Z,21.02
2023-02-10T10:56:45.050Z,21.50
2023-02-10T10:59:19.081Z,26.98
2023-02-10T11:01:47.610Z,19.38
2023-02-10T11:04:19.849Z,18.55
2023-02-10T11:06:50.804Z,22.35
2023-02-10T11:09:41.271Z,21.90
2023-02-10T11:12:17.816Z,20.65
2023-02-10T11:14:46.680Z,19.50
2023-02-10T11:17:35.304Z,20.67
2023-02-10T11:20:22.763Z,22.08
2023-02-10T11:22:58.650Z,21.13
2023-02-10T11:25:33.244Z,18.80
2023-02-10T11:28:03.574Z,18.40
2023-02-10T11:30:38.656Z,17.55
2023-02-10T11:33:18.282Z,18.05
2023-02-10T11:35:51.954Z,20.17
2023-02-10T11:38:24.502Z,17.80
2023-02-10T11:40:54.026Z,22.42
2023-02-10T11:43:27.318Z,21.33
2023-02-10T11:45:57.839Z,25.08
2023-02-10T11:48:26.659Z,23.10
2023-02-10T11:51:13.458Z,24.33
2023-02-10T11:53:41.350Z,23.13
2023-02-10T11:56:19.022Z,28.63
2023-02-10T11:59:33.727Z,27.25
2023-02-10T12:02:35.174Z,25.52
2023-02-10T12:05:17.460Z,23.38
2023-02-10T12:07:59.367Z,25.35
2023-02-10T12:13:10.489Z,24.33
2023-02-10T12:15:50.346Z,26.98
2023-02-10T12:18:40.857Z,34.53
2023-02-10T12:21:30.804Z,26.42
2023-02-10T12:24:12.502Z,28.92
2023-02-10T12:26:53.606Z,28.17
2023-02-10T12:29:37.712Z,22.73
2023-02-10T12:32:18.379Z,23.08
2023-02-10T12:35:01.898Z,25.48
2023-02-10T12:37:53.296Z,26.55
2023-02-10T12:40:38.918Z,26.42
2023-02-10T12:43:24.323Z,27.85
2023-02-10T12:46:15.264Z,26.33
2023-02-10T12:49:09.432Z,23.38
2023-02-10T12:52:04.284Z,26.63
2023-02-10T12:54:42.720Z,25.42
2023-02-10T12:57:19.989Z,25.23
2023-02-10T13:00:08.244Z,22.95
2023-02-10T13:03:08.391Z,26.35
2023-02-10T13:05:45.496Z,24.30
2023-02-10T13:08:24.316Z,22.85
2023-02-10T13:10:56.112Z,23.48
2023-02-10T13:13:29.270Z,27.27
2023-02-10T13:16:16.488Z,25.30
2023-02-10T13:18:53.291Z,27.65
2023-02-10T13:21:29.091Z,28.42
2023-02-10T13:24:09.344Z,24.70
2023-02-10T13:26:59.769Z,27.55
2023-02-10T13:29:52.892Z,30.25
2023-02-10T13:32:34.299Z,32.03
2023-02-10T13:35:02.536Z,29.88
2023-02-10T13:37:38.193Z,27.33
2023-02-10T13:40:15.458Z,23.65
2023-02-10T13:42:50.128Z,29.88
2023-02-10T13:45:21.751Z,27.15
2023-02-10T13:47:52.990Z,27.38
2023-02-10T13:50:43.098Z,25.05
2023-02-10T13:53:31.179Z,27.15
2023-02-10T13:56:19.700Z,25.20
2023-02-10T13:59:27.897Z,23.95
2023-02-10T14:02:00.530Z,22.98
2023-02-10T14:04:46.831Z,26.33
2023-02-10T14:07:37.782Z,30.05
2023-02-10T14:10:27.729Z,24.25
2023-02-10T14:13:06.999Z,26.20
2023-02-10T14:15:36.744Z,26.40
2023-02-10T14:18:07.444Z,27.85
2023-02-10T14:20:37.762Z,24.88
2023-02-10T14:23:07.009Z,28.27
2023-02-10T14:25:38.714Z,22.08
2023-02-10T14:30:46.220Z,23.95
2023-02-10T14:33:27.821Z,25.90
2023-02-10T14:35:57.717Z,24.73
2023-02-10T14:38:27.728Z,22.50
2023-02-10T14:40:55.421Z,23.60
2023-02-10T14:43:26.718Z,23.05
2023-02-10T14:45:54.403Z,22.17
2023-02-10T14:48:23.247Z,25.60
2023-02-10T14:51:05.835Z,21.92
2023-02-10T14:53:32.280Z,22.90
2023-02-10T14:56:01.187Z,24.65
2023-02-10T14:58:28.104Z,25.83
2023-02-10T15:01:30.737Z,24.70
2023-02-10T15:03:58.671Z,24.83
2023-02-10T15:06:30.331Z,27.02
2023-02-10T15:09:04.526Z,28.33
2023-02-10T15:11:53.695Z,22.75
2023-02-10T15:14:27.111Z,26.05
2023-02-10T15:16:58.883Z,29.67
2023-02-10T15:19:26.657Z,26.27
2023-02-10T15:21:53.508Z,23.88
2023-02-10T15:24:29.881Z,23.83
2023-02-10T15:27:22.923Z,22.75
2023-02-10T15:29:49.563Z,21.13
2023-02-10T15:32:21.899Z,21.85
2023-02-10T15:34:51.295Z,26.25
2023-02-10T15:37:25.491Z,22.02
2023-02-10T15:40:01.724Z,22.23
2023-02-10T15:42:33.509Z,20.40
2023-02-10T15:45:02.803Z,21.85
2023-02-10T15:47:54.790Z,23.67
2023-02-10T15:52:49.300Z,19.33
2023-02-10T15:55:31.747Z,21.20
2023-02-10T15:57:58.600Z,24.15
2023-02-10T16:00:30.933Z,20.58
2023-02-10T16:02:57.951Z,22.60
2023-02-10T16:05:25.688Z,20.60
2023-02-10T16:07:53.006Z,22.52
2023-02-10T16:10:23.195Z,20.85
2023-02-10T16:12:50.373Z,24.52
2023-02-10T16:15:20.393Z,25.33
2023-02-10T16:17:49.958Z,26.83
2023-02-10T16:20:23.327Z,22.40
2023-02-10T16:22:50.384Z,26.90
2023-02-10T16:25:18.678Z,24.05
2023-02-10T16:27:45.715Z,27.75
2023-02-10T16:30:16.564Z,26.80
2023-02-10T16:32:43.202Z,24.73
2023-02-10T16:35:10.407Z,24.40
2023-02-10T16:37:36.950Z,25.77
2023-02-10T16:40:03.906Z,21.35
2023-02-10T16:42:30.359Z,25.13
2023-02-10T16:44:56.893Z,24.30
2023-02-10T16:47:23.390Z,23.52
2023-02-10T16:49:50.626Z,25.65
2023-02-10T16:52:21.336Z,28.02
2023-02-10T16:54:49.205Z,25.05
2023-02-10T16:57:15.748Z,22.00
2023-02-10T16:59:42.235Z,26.80
2023-02-10T17:02:10.512Z,22.00
2023-02-10T17:04:37.143Z,25.83
2023-02-10T17:07:03.959Z,26.48
2023-02-10T17:09:31.094Z,26.42
2023-02-10T17:11:57.510Z,25.70
2023-02-10T17:14:23.936Z,26.77
2023-02-10T17:16:52.173Z,27.38
2023-02-10T17:19:25.027Z,27.60
2023-02-10T17:21:51.459Z,30.17
2023-02-10T17:24:17.919Z,31.67
2023-02-10T17:26:48.321Z,27.67
2023-02-10T17:29:16.431Z,28.05
2023-02-10T17:31:44.297Z,31.92
2023-02-10T17:34:11.649Z,30.48
2023-02-10T17:36:40.762Z,29.15
2023-02-10T17:39:26.548Z,31.40
2023-02-10T17:41:54.515Z,32.72
2023-02-10T17:44:21.394Z,34.22
2023-02-10T17:46:55.065Z,32.40
2023-02-10T17:49:27.933Z,30.65
2023-02-10T17:51:54.907Z,29.73
2023-02-10T17:54:21.483Z,32.60
2023-02-10T17:56:48.380Z,29.73
2023-02-10T17:59:16.132Z,29.48
2023-02-10T18:01:45.170Z,35.22
2023-02-10T18:04:14.599Z,31.42
2023-02-10T18:06:41.330Z,32.65
2023-02-10T18:09:07.934Z,32.83
2023-02-10T18:11:34.408Z,36.00
2023-02-10T18:14:01.576Z,38.45
2023-02-10T18:16:28.465Z,31.65
2023-02-10T18:18:56.217Z,38.38
2023-02-10T18:21:23.955Z,36.05
2023-02-10T18:23:51.949Z,34.10
2023-02-10T18:26:19.106Z,41.10
2023-02-10T18:28:45.596Z,35.13
2023-02-10T18:31:14.946Z,39.80
2023-02-10T18:33:42.562Z,38.17
2023-02-10T18:36:11.198Z,46.38
2023-02-10T18:38:37.823Z,34.22
2023-02-10T18:41:04.555Z,37.85
2023-02-10T18:43:31.010Z,32.60
2023-02-10T18:45:57.610Z,41.88
2023-02-10T18:48:24.200Z,36.80
2023-02-10T18:50:51.076Z,31.05
2023-02-10T18:53:19.001Z,32.53
2023-02-10T18:55:47.175Z,35.30
2023-02-10T18:58:15.488Z,30.27
2023-02-10T19:00:43.064Z,35.95
2023-02-10T19:03:10.547Z,36.60
2023-02-10T19:05:37.888Z,27.63
2023-02-10T19:08:04.690Z,38.58
2023-02-10T19:10:31.345Z,34.40
2023-02-10T19:12:57.752Z,38.03
2023-02-10T19:15:24.414Z,30.42
2023-02-10T19:17:51.161Z,28.88
2023-02-10T19:20:17.691Z,34.70
2023-02-10T19:22:44.179Z,36.75
2023-02-10T19:25:10.626Z,34.97
2023-02-10T19:27:37.131Z,32.08
2023-02-10T19:30:04.545Z,34.03
2023-02-10T19:32:31.111Z,34.13
2023-02-10T19:34:57.561Z,33.30
2023-02-10T19:37:24.267Z,37.42
2023-02-10T19:39:50.774Z,36.17
2023-02-10T19:42:17.563Z,37.17
2023-02-10T19:44:44.674Z,36.22
2023-02-10T19:47:11.113Z,42.47
2023-02-10T19:49:38.291Z,41.15
2023-02-10T19:52:04.806Z,44.03
2023-02-10T19:54:31.290Z,40.67
2023-02-10T19:56:57.930Z,36.78
2023-02-10T19:59:24.354Z,41.15
2023-02-10T20:01:50.987Z,46.45
2023-02-10T20:04:17.700Z,38.67
2023-02-10T20:06:46.279Z,37.15
2023-02-10T20:09:13.187Z,36.88
2023-02-10T20:11:40.503Z,36.58
2023-02-10T20:14:10.539Z,37.72
2023-02-10T20:16:38.670Z,33.15
2023-02-10T20:19:05.969Z,36.53
2023-02-10T20:21:33.069Z,43.08
2023-02-10T20:23:59.663Z,36.25
2023-02-10T20:26:26.161Z,36.17
2023-02-10T20:28:52.677Z,37.80
2023-02-10T20:31:19.419Z,39.33
2023-02-10T20:33:46.502Z,34.58
2023-02-10T20:36:14.916Z,26.30
2023-02-10T20:38:43.429Z,33.05
2023-02-10T20:41:12.040Z,36.97
2023-02-10T20:43:38.568Z,36.17
2023-02-10T20:46:07.375Z,43.35
2023-02-10T20:48:34.593Z,39.33
2023-02-10T20:51:03.678Z,51.72
2023-02-10T20:53:31.491Z,35.70
2023-02-10T20:55:58.884Z,41.63
2023-02-10T20:58:26.200Z,39.30
2023-02-10T21:00:59.139Z,37.22
2023-02-10T21:03:25.608Z,32.58
2023-02-10T21:05:53.241Z,35.92
2023-02-10T21:08:20.179Z,31.60
2023-02-10T21:10:46.753Z,33.13
2023-02-10T21:13:13.195Z,34.08
2023-02-10T21:15:39.702Z,38.15
2023-02-10T21:18:06.433Z,32.28
2023-02-10T21:20:33.475Z,33.65
2023-02-10T21:22:59.852Z,36.95
2023-02-10T21:25:27.011Z,34.90
2023-02-10T21:27:53.491Z,30.73
2023-02-10T21:30:19.972Z,29.90
2023-02-10T21:32:46.548Z,29.33
2023-02-10T21:35:13.024Z,33.20
2023-02-10T21:37:39.544Z,34.78
2023-02-10T21:40:06.674Z,33.72
2023-02-10T21:42:33.268Z,38.40
2023-02-10T21:44:59.807Z,31.80
2023-02-10T21:47:26.254Z,29.98
2023-02-10T21:49:52.742Z,29.45
2023-02-10T21:52:19.231Z,36.15
2023-02-10T21:54:45.748Z,36.78
2023-02-10T21:57:14.937Z,36.85
2023-02-10T21:59:41.376Z,26.67
2023-02-10T22:02:08.522Z,34.70
2023-02-10T22:04:35.443Z,29.35
2023-02-10T22:07:02.264Z,30.40
2023-02-10T22:09:28.740Z,33.00
2023-02-10T22:11:55.198Z,36.85
2023-02-10T22:14:21.725Z,31.80
2023-02-10T22:16:48.155Z,35.78
2023-02-10T22:19:14.984Z,26.48
2023-02-10T22:21:41.648Z,29.45
2023-02-10T22:24:11.169Z,28.92
2023-02-10T22:26:37.888Z,32.25
2023-02-10T22:29:04.347Z,29.08
2023-02-10T22:31:33.270Z,32.72
2023-02-10T22:34:03.404Z,25.77
2023-02-10T22:36:30.161Z,28.40
2023-02-10T22:38:57.544Z,30.27
2023-02-10T22:41:30.386Z,28.25
2023-02-10T22:43:58.660Z,30.02
2023-02-10T22:46:25.351Z,30.48
2023-02-10T22:48:52.481Z,31.13
2023-02-10T22:51:24.930Z,27.98
2023-02-10T22:53:56.152Z,27.48
2023-02-10T22:56:24.866Z,27.75
2023-02-10T22:58:51.758Z,24.65
2023-02-10T23:01:42.545Z,32.00
2023-02-10T23:04:11.397Z,25.65
2023-02-10T23:06:39.181Z,26.05
2023-02-10T23:09:06.884Z,29.70
2023-02-10T23:11:37.040Z,35.80
2023-02-10T23:14:03.503Z,28.67
2023-02-10T23:16:30.170Z,23.70
2023-02-10T23:18:57.542Z,26.38
2023-02-10T23:21:25.935Z,25.05
2023-02-10T23:23:53.538Z,23.23
2023-02-10T23:26:31.043Z,25.23
2023-02-10T23:29:03.282Z,33.85
2023-02-10T23:31:30.996Z,26.40
2023-02-10T23:33:58.131Z,29.50
2023-02-10T23:36:25.422Z,26.83
2023-02-10T23:38:52.276Z,29.88
2023-02-10T23:41:19.344Z,26.38
2023-02-10T23:43:46.128Z,27.73
2023-02-10T23:46:13.013Z,30.13
2023-02-10T23:48:39.770Z,24.52
2023-02-10T23:51:08.301Z,29.30
2023-02-10T23:53:34.765Z,22.75
2023-02-10T23:56:01.276Z,23.10
2023-02-10T23:58:27.763Z,29.52
